createdAt,value
2018-10-16T00:00:07.315Z,64.20
2018-10-16T00:00:39.906Z,64.00
2018-10-16T00:01:12.528Z,64.20
2018-10-16T00:01:45.186Z,64.30
2018-10-16T00:02:18.010Z,64.30
2018-10-16T00:02:50.616Z,64.40
2018-10-16T00:03:23.194Z,64.50
2018-10-16T00:03:55.826Z,64.70
2018-10-16T00:04:28.478Z,64.50
2018-10-16T00:05:01.042Z,64.60
2018-10-16T00:05:33.632Z,64.70
2018-10-16T00:06:06.724Z,64.80
2018-10-16T00:06:39.308Z,64.90
2018-10-16T00:07:11.897Z,64.80
2018-10-16T00:07:44.527Z,65.00
2018-10-16T00:08:17.115Z,65.10
2018-10-16T00:08:49.711Z,65.10
2018-10-16T00:09:22.305Z,65.20
2018-10-16T00:09:54.907Z,64.80
2018-10-16T00:10:33.174Z,64.90
2018-10-16T00:11:05.976Z,65.10
2018-10-16T00:11:48.760Z,65.00
2018-10-16T00:12:21.353Z,65.10
2018-10-16T00:12:53.915Z,64.60
2018-10-16T00:13:26.498Z,64.70
2018-10-16T00:13:59.089Z,64.60
2018-10-16T00:14:31.860Z,64.80
2018-10-16T00:15:05.587Z,64.90
2018-10-16T00:15:38.231Z,64.50
2018-10-16T00:16:10.823Z,64.50
2018-10-16T00:16:43.382Z,64.60
2018-10-16T00:17:15.970Z,64.70
2018-10-16T00:17:48.534Z,64.80
2018-10-16T00:18:21.143Z,64.50
2018-10-16T00:18:53.702Z,64.30
2018-10-16T00:19:26.240Z,64.00
2018-10-16T00:19:58.797Z,64.40
2018-10-16T00:20:31.382Z,64.60
2018-10-16T00:21:04.350Z,64.80
2018-10-16T00:21:36.922Z,64.70
2018-10-16T00:22:09.478Z,64.80
2018-10-16T00:22:42.068Z,65.80
2018-10-16T00:23:14.642Z,65.60
2018-10-16T00:23:47.210Z,65.90
2018-10-16T00:24:20.098Z,65.70
2018-10-16T00:24:52.665Z,65.40
2018-10-16T00:25:25.316Z,65.10
2018-10-16T00:25:57.927Z,65.20
2018-10-16T00:26:30.521Z,65.40
2018-10-16T00:27:03.123Z,65.40
2018-10-16T00:27:35.701Z,65.40
2018-10-16T00:28:08.278Z,65.60
2018-10-16T00:28:40.834Z,65.60
2018-10-16T00:29:13.387Z,65.40
2018-10-16T00:29:45.958Z,65.60
2018-10-16T00:30:18.634Z,65.70
2018-10-16T00:30:51.244Z,65.90
2018-10-16T00:31:23.833Z,66.00
2018-10-16T00:31:56.406Z,66.00
2018-10-16T00:32:29.012Z,66.10
2018-10-16T00:33:01.627Z,66.20
2018-10-16T00:33:34.219Z,66.30
2018-10-16T00:34:06.994Z,66.30
2018-10-16T00:34:39.542Z,66.40
2018-10-16T00:35:12.088Z,66.40
2018-10-16T00:35:44.686Z,66.40
2018-10-16T00:36:17.258Z,66.30
2018-10-16T00:36:49.888Z,66.20
2018-10-16T00:37:22.462Z,66.20
2018-10-16T00:37:55.043Z,66.30
2018-10-16T00:38:27.644Z,66.30
2018-10-16T00:39:00.235Z,66.20
2018-10-16T00:39:32.827Z,66.40
2018-10-16T00:40:05.580Z,66.40
2018-10-16T00:40:38.142Z,66.50
2018-10-16T00:41:10.736Z,66.60
2018-10-16T00:41:43.451Z,66.60
2018-10-16T00:42:16.045Z,66.60
2018-10-16T00:42:48.650Z,66.50
2018-10-16T00:43:21.222Z,66.40
2018-10-16T00:43:53.788Z,66.40
2018-10-16T00:44:26.379Z,66.50
2018-10-16T00:44:58.955Z,66.60
2018-10-16T00:45:31.547Z,66.80
2018-10-16T00:46:04.238Z,66.60
2018-10-16T00:46:37.503Z,66.90
2018-10-16T00:47:10.133Z,66.90
2018-10-16T00:47:42.784Z,66.90
2018-10-16T00:48:15.423Z,66.90
2018-10-16T00:48:47.990Z,67.00
2018-10-16T00:49:20.616Z,66.70
2018-10-16T00:49:53.202Z,66.30
2018-10-16T00:50:25.772Z,66.30
2018-10-16T00:50:58.326Z,66.50
2018-10-16T00:51:30.935Z,66.50
2018-10-16T00:52:03.632Z,66.70
2018-10-16T00:52:36.314Z,66.90
2018-10-16T00:53:08.948Z,66.90
2018-10-16T00:53:41.510Z,66.90
2018-10-16T00:54:14.090Z,66.80
2018-10-16T00:54:46.675Z,66.90
2018-10-16T00:55:19.246Z,66.90
2018-10-16T00:55:51.795Z,66.90
2018-10-16T00:56:24.382Z,67.10
2018-10-16T00:56:56.974Z,67.10
2018-10-16T00:57:29.579Z,67.30
2018-10-16T00:58:02.407Z,67.30
2018-10-16T00:58:35.011Z,67.10
2018-10-16T00:59:08.016Z,67.70
2018-10-16T00:59:40.607Z,67.30
2018-10-16T01:00:13.317Z,67.40
2018-10-16T01:00:45.932Z,67.40
2018-10-16T01:01:24.266Z,67.40
2018-10-16T01:01:56.878Z,67.50
2018-10-16T01:02:29.491Z,67.40
2018-10-16T01:03:02.156Z,67.40
2018-10-16T01:03:34.844Z,68.20
2018-10-16T01:04:08.283Z,67.20
2018-10-16T01:04:40.892Z,67.00
2018-10-16T01:05:13.483Z,67.10
2018-10-16T01:05:46.088Z,67.70
2018-10-16T01:06:18.762Z,67.10
2018-10-16T01:06:51.388Z,67.10
2018-10-16T01:07:24.005Z,67.10
2018-10-16T01:07:56.565Z,67.00
2018-10-16T01:08:29.122Z,67.00
2018-10-16T01:09:01.790Z,67.10
2018-10-16T01:09:34.406Z,67.20
2018-10-16T01:10:07.843Z,67.20
2018-10-16T01:10:40.567Z,67.40
2018-10-16T01:11:13.173Z,67.40
2018-10-16T01:11:45.808Z,67.40
2018-10-16T01:12:18.414Z,67.50
2018-10-16T01:12:51.010Z,67.30
2018-10-16T01:13:23.582Z,67.50
2018-10-16T01:13:57.238Z,67.60
2018-10-16T01:14:29.833Z,67.60
2018-10-16T01:15:02.462Z,67.20
2018-10-16T01:15:35.046Z,67.40
2018-10-16T01:16:07.663Z,67.40
2018-10-16T01:16:40.255Z,67.20
2018-10-16T01:17:12.847Z,67.10
2018-10-16T01:17:45.461Z,67.20
2018-10-16T01:18:18.042Z,67.10
2018-10-16T01:18:50.922Z,66.90
2018-10-16T01:19:23.518Z,67.00
2018-10-16T01:19:56.090Z,67.10
2018-10-16T01:20:29.730Z,67.20
2018-10-16T01:21:02.339Z,67.10
2018-10-16T01:21:34.939Z,67.20
2018-10-16T01:22:07.603Z,67.40
2018-10-16T01:22:40.516Z,67.30
2018-10-16T01:23:13.102Z,67.30
2018-10-16T01:23:45.695Z,67.30
2018-10-16T01:24:18.311Z,67.40
2018-10-16T01:24:50.907Z,67.30
2018-10-16T01:25:23.474Z,67.10
2018-10-16T01:25:56.104Z,67.00
2018-10-16T01:26:28.744Z,67.20
2018-10-16T01:27:01.315Z,67.20
2018-10-16T01:27:33.882Z,67.10
2018-10-16T01:28:06.491Z,67.10
2018-10-16T01:28:39.099Z,67.10
2018-10-16T01:29:11.710Z,67.30
2018-10-16T01:29:44.315Z,67.20
2018-10-16T01:30:16.891Z,67.20
2018-10-16T01:30:49.530Z,67.10
2018-10-16T01:31:22.130Z,67.00
2018-10-16T01:31:54.704Z,66.90
2018-10-16T01:32:27.317Z,66.80
2018-10-16T01:32:59.898Z,66.80
2018-10-16T01:33:32.491Z,66.80
2018-10-16T01:34:05.134Z,66.90
2018-10-16T01:34:37.701Z,66.90
2018-10-16T01:35:11.380Z,67.10
2018-10-16T01:35:43.951Z,66.90
2018-10-16T01:36:16.568Z,66.80
2018-10-16T01:36:49.198Z,66.90
2018-10-16T01:37:21.758Z,67.00
2018-10-16T01:37:54.339Z,67.10
2018-10-16T01:38:26.911Z,67.10
2018-10-16T01:38:59.506Z,67.10
2018-10-16T01:39:32.075Z,67.10
2018-10-16T01:40:06.215Z,67.10
2018-10-16T01:40:38.833Z,67.10
2018-10-16T01:41:11.398Z,67.20
2018-10-16T01:41:43.999Z,67.20
2018-10-16T01:42:16.639Z,67.20
2018-10-16T01:42:49.231Z,67.30
2018-10-16T01:43:21.885Z,67.30
2018-10-16T01:43:54.494Z,67.40
2018-10-16T01:44:27.054Z,67.50
2018-10-16T01:44:59.611Z,67.20
2018-10-16T01:45:32.214Z,67.20
2018-10-16T01:46:04.858Z,67.30
2018-10-16T01:46:37.511Z,67.30
2018-10-16T01:47:10.124Z,67.40
2018-10-16T01:47:42.710Z,67.20
2018-10-16T01:48:15.277Z,67.10
2018-10-16T01:48:47.871Z,67.00
2018-10-16T01:49:20.424Z,67.20
2018-10-16T01:49:52.994Z,67.80
2018-10-16T01:50:25.584Z,67.50
2018-10-16T01:50:58.203Z,67.40
2018-10-16T01:51:30.790Z,67.50
2018-10-16T01:52:03.494Z,67.50
2018-10-16T01:52:36.308Z,67.50
2018-10-16T01:53:08.896Z,67.50
2018-10-16T01:53:41.491Z,67.40
2018-10-16T01:54:14.062Z,67.40
2018-10-16T01:54:46.658Z,67.40
2018-10-16T01:55:19.219Z,67.60
2018-10-16T01:55:52.066Z,67.80
2018-10-16T01:56:24.676Z,67.80
2018-10-16T01:56:57.244Z,67.70
2018-10-16T01:57:29.810Z,67.80
2018-10-16T01:58:02.399Z,67.50
2018-10-16T01:58:34.983Z,67.60
2018-10-16T01:59:07.566Z,67.70
2018-10-16T01:59:40.164Z,67.50
2018-10-16T02:00:12.771Z,67.70
2018-10-16T02:00:45.386Z,67.80
2018-10-16T02:01:17.984Z,67.80
2018-10-16T02:01:50.620Z,67.70
2018-10-16T02:02:23.275Z,67.80
2018-10-16T02:02:55.859Z,67.90
2018-10-16T02:03:28.451Z,68.00
2018-10-16T02:04:01.112Z,68.00
2018-10-16T02:04:33.711Z,68.00
2018-10-16T02:05:06.389Z,68.10
2018-10-16T02:05:38.974Z,68.10
2018-10-16T02:06:11.618Z,68.10
2018-10-16T02:06:44.221Z,68.10
2018-10-16T02:07:16.811Z,68.10
2018-10-16T02:07:49.399Z,68.20
2018-10-16T02:08:21.978Z,68.90
2018-10-16T02:08:54.563Z,68.20
2018-10-16T02:09:27.171Z,68.30
2018-10-16T02:09:59.735Z,68.30
2018-10-16T02:10:32.365Z,68.10
2018-10-16T02:11:05.292Z,68.20
2018-10-16T02:11:37.928Z,68.30
2018-10-16T02:12:10.530Z,68.10
2018-10-16T02:12:43.111Z,68.30
2018-10-16T02:13:15.666Z,68.30
2018-10-16T02:13:48.283Z,68.70
2018-10-16T02:14:20.890Z,67.80
2018-10-16T02:14:53.580Z,67.80
2018-10-16T02:15:26.157Z,67.70
2018-10-16T02:15:58.783Z,67.90
2018-10-16T02:16:31.406Z,67.80
2018-10-16T02:17:04.076Z,67.70
2018-10-16T02:17:37.247Z,67.80
2018-10-16T02:18:09.895Z,67.70
2018-10-16T02:18:42.507Z,67.70
2018-10-16T02:19:15.145Z,68.40
2018-10-16T02:19:47.755Z,67.80
2018-10-16T02:20:20.354Z,67.90
2018-10-16T02:20:52.952Z,67.90
2018-10-16T02:21:25.521Z,67.90
2018-10-16T02:21:58.140Z,67.90
2018-10-16T02:22:30.751Z,68.00
2018-10-16T02:23:03.342Z,68.10
2018-10-16T02:23:36.305Z,68.20
2018-10-16T02:24:08.907Z,68.20
2018-10-16T02:24:41.526Z,68.10
2018-10-16T02:25:14.130Z,68.00
2018-10-16T02:25:46.760Z,68.00
2018-10-16T02:26:19.371Z,67.90
2018-10-16T02:26:51.926Z,68.00
2018-10-16T02:27:24.616Z,68.00
2018-10-16T02:27:57.180Z,68.10
2018-10-16T02:28:29.739Z,68.20
2018-10-16T02:29:02.330Z,68.20
2018-10-16T02:29:34.932Z,68.10
2018-10-16T02:30:07.739Z,67.90
2018-10-16T02:30:40.486Z,68.10
2018-10-16T02:31:13.140Z,68.10
2018-10-16T02:31:45.733Z,67.90
2018-10-16T02:32:18.324Z,68.10
2018-10-16T02:32:50.948Z,68.00
2018-10-16T02:33:23.568Z,68.10
2018-10-16T02:33:56.216Z,68.30
2018-10-16T02:34:28.797Z,68.20
2018-10-16T02:35:01.382Z,68.20
2018-10-16T02:35:33.966Z,68.40
2018-10-16T02:36:06.612Z,68.20
2018-10-16T02:36:39.236Z,68.10
2018-10-16T02:37:11.804Z,67.80
2018-10-16T02:37:44.414Z,67.60
2018-10-16T02:38:17.084Z,67.70
2018-10-16T02:38:49.742Z,67.50
2018-10-16T02:39:22.298Z,67.50
2018-10-16T02:39:54.956Z,67.50
2018-10-16T02:40:27.554Z,67.20
2018-10-16T02:41:00.195Z,67.50
2018-10-16T02:41:32.830Z,67.20
2018-10-16T02:42:05.724Z,67.30
2018-10-16T02:42:39.089Z,67.50
2018-10-16T02:43:11.668Z,67.60
2018-10-16T02:43:44.247Z,67.40
2018-10-16T02:44:16.848Z,67.30
2018-10-16T02:44:49.458Z,67.30
2018-10-16T02:45:22.068Z,67.40
2018-10-16T02:45:54.628Z,67.50
2018-10-16T02:46:27.190Z,67.50
2018-10-16T02:46:59.788Z,67.60
2018-10-16T02:47:32.406Z,67.50
2018-10-16T02:48:05.127Z,67.40
2018-10-16T02:48:37.904Z,67.50
2018-10-16T02:49:10.631Z,67.70
2018-10-16T02:49:43.336Z,67.70
2018-10-16T02:50:15.957Z,67.70
2018-10-16T02:50:48.555Z,67.80
2018-10-16T02:51:21.128Z,67.90
2018-10-16T02:51:53.750Z,67.90
2018-10-16T02:52:26.318Z,68.10
2018-10-16T02:52:58.964Z,68.10
2018-10-16T02:53:31.532Z,68.10
2018-10-16T02:54:04.122Z,68.20
2018-10-16T02:54:36.723Z,68.20
2018-10-16T02:55:10.196Z,68.30
2018-10-16T02:55:42.887Z,68.50
2018-10-16T02:56:15.467Z,68.40
2018-10-16T02:56:48.057Z,68.40
2018-10-16T02:57:20.677Z,68.50
2018-10-16T02:57:53.268Z,68.50
2018-10-16T02:58:25.908Z,68.70
2018-10-16T02:58:58.541Z,68.60
2018-10-16T02:59:31.138Z,68.60
2018-10-16T03:00:04.356Z,68.20
2018-10-16T03:00:36.935Z,68.20
2018-10-16T03:01:09.575Z,68.30
2018-10-16T03:01:42.159Z,68.30
2018-10-16T03:02:14.755Z,68.30
2018-10-16T03:02:47.315Z,68.30
2018-10-16T03:03:19.872Z,68.30
2018-10-16T03:03:52.662Z,68.30
2018-10-16T03:04:25.245Z,68.40
2018-10-16T03:04:58.136Z,68.30
2018-10-16T03:05:30.763Z,68.30
2018-10-16T03:06:03.376Z,68.10
2018-10-16T03:06:35.995Z,67.90
2018-10-16T03:07:08.664Z,67.80
2018-10-16T03:07:41.283Z,67.80
2018-10-16T03:08:13.864Z,67.80
2018-10-16T03:08:46.488Z,67.70
2018-10-16T03:09:19.163Z,68.50
2018-10-16T03:09:51.779Z,68.10
2018-10-16T03:10:24.418Z,68.10
2018-10-16T03:10:57.236Z,68.30
2018-10-16T03:11:29.851Z,68.40
2018-10-16T03:12:02.427Z,68.40
2018-10-16T03:12:35.038Z,68.30
2018-10-16T03:13:07.815Z,68.80
2018-10-16T03:13:40.426Z,68.40
2018-10-16T03:14:12.966Z,68.40
2018-10-16T03:14:45.586Z,68.20
2018-10-16T03:15:18.186Z,68.20
2018-10-16T03:15:50.784Z,68.20
2018-10-16T03:16:23.366Z,68.20
2018-10-16T03:16:55.954Z,68.10
2018-10-16T03:17:28.569Z,68.00
2018-10-16T03:18:01.165Z,68.00
2018-10-16T03:18:33.743Z,68.10
2018-10-16T03:19:06.336Z,67.90
2018-10-16T03:19:38.983Z,68.00
2018-10-16T03:20:11.916Z,68.10
2018-10-16T03:20:51.269Z,68.10
2018-10-16T03:21:23.842Z,68.20
2018-10-16T03:21:56.512Z,68.30
2018-10-16T03:22:29.119Z,68.20
2018-10-16T03:23:01.749Z,68.40
2018-10-16T03:23:34.386Z,68.60
2018-10-16T03:24:07.815Z,68.50
2018-10-16T03:24:40.412Z,68.60
2018-10-16T03:25:13.070Z,68.70
2018-10-16T03:25:45.650Z,68.70
2018-10-16T03:26:18.435Z,68.80
2018-10-16T03:26:51.016Z,69.20
2018-10-16T03:27:23.643Z,68.70
2018-10-16T03:27:56.236Z,68.80
2018-10-16T03:28:28.803Z,68.80
2018-10-16T03:29:01.376Z,68.80
2018-10-16T03:29:33.997Z,68.90
2018-10-16T03:30:08.034Z,68.90
2018-10-16T03:30:40.719Z,69.10
2018-10-16T03:31:13.327Z,69.00
2018-10-16T03:31:45.943Z,69.00
2018-10-16T03:32:18.543Z,69.10
2018-10-16T03:32:51.140Z,69.10
2018-10-16T03:33:23.746Z,69.10
2018-10-16T03:33:56.343Z,69.00
2018-10-16T03:34:28.948Z,69.00
2018-10-16T03:35:01.551Z,69.20
2018-10-16T03:35:34.139Z,69.20
2018-10-16T03:36:06.733Z,69.20
2018-10-16T03:36:39.731Z,69.00
2018-10-16T03:37:12.339Z,68.90
2018-10-16T03:37:44.946Z,69.20
2018-10-16T03:38:17.491Z,69.00
2018-10-16T03:38:50.082Z,69.10
2018-10-16T03:39:22.687Z,69.00
2018-10-16T03:39:55.352Z,69.00
2018-10-16T03:40:27.996Z,68.90
2018-10-16T03:41:00.595Z,69.00
2018-10-16T03:41:33.215Z,68.90
2018-10-16T03:42:05.852Z,68.90
2018-10-16T03:42:39.471Z,69.00
2018-10-16T03:43:12.090Z,68.90
2018-10-16T03:43:48.148Z,68.70
2018-10-16T03:44:20.739Z,68.70
2018-10-16T03:44:53.408Z,68.80
2018-10-16T03:45:26.000Z,68.70
2018-10-16T03:45:58.562Z,68.60
2018-10-16T03:46:31.171Z,68.50
2018-10-16T03:47:03.914Z,68.60
2018-10-16T03:47:36.626Z,68.60
2018-10-16T03:48:09.188Z,68.80
2018-10-16T03:48:41.830Z,68.90
2018-10-16T03:49:14.407Z,68.90
2018-10-16T03:49:46.994Z,69.00
2018-10-16T03:50:19.609Z,69.10
2018-10-16T03:50:52.175Z,69.10
2018-10-16T03:51:25.078Z,69.00
2018-10-16T03:51:57.650Z,69.10
2018-10-16T03:52:30.251Z,69.10
2018-10-16T03:53:02.838Z,69.10
2018-10-16T03:53:35.459Z,69.20
2018-10-16T03:54:08.699Z,69.30
2018-10-16T03:54:41.307Z,69.40
2018-10-16T03:55:13.875Z,69.50
2018-10-16T03:55:46.458Z,69.60
2018-10-16T03:56:19.322Z,69.60
2018-10-16T03:56:51.923Z,69.70
2018-10-16T03:57:24.535Z,69.90
2018-10-16T03:57:57.151Z,70.00
2018-10-16T03:58:29.750Z,70.00
2018-10-16T03:59:02.342Z,70.20
2018-10-16T03:59:34.969Z,70.00
2018-10-16T04:00:08.209Z,70.00
2018-10-16T04:00:40.811Z,70.10
2018-10-16T04:01:13.474Z,70.10
2018-10-16T04:01:46.086Z,70.00
2018-10-16T04:02:18.699Z,70.10
2018-10-16T04:02:51.280Z,69.80
2018-10-16T04:03:23.874Z,70.00
2018-10-16T04:03:56.440Z,70.10
2018-10-16T04:04:29.046Z,70.10
2018-10-16T04:05:01.715Z,70.00
2018-10-16T04:05:34.295Z,70.20
2018-10-16T04:06:06.879Z,70.20
2018-10-16T04:06:40.544Z,70.30
2018-10-16T04:07:13.113Z,70.30
2018-10-16T04:07:45.675Z,70.40
2018-10-16T04:08:18.267Z,70.30
2018-10-16T04:08:51.547Z,70.60
2018-10-16T04:09:24.126Z,70.00
2018-10-16T04:09:56.704Z,70.30
2018-10-16T04:10:29.282Z,70.60
2018-10-16T04:11:01.889Z,70.60
2018-10-16T04:11:34.495Z,70.50
2018-10-16T04:12:07.071Z,70.20
2018-10-16T04:12:39.655Z,70.10
2018-10-16T04:13:12.210Z,69.90
2018-10-16T04:13:44.868Z,69.90
2018-10-16T04:14:17.467Z,70.10
2018-10-16T04:14:50.081Z,70.10
2018-10-16T04:15:22.675Z,70.00
2018-10-16T04:15:55.242Z,70.00
2018-10-16T04:16:27.838Z,70.00
2018-10-16T04:17:00.435Z,70.10
2018-10-16T04:17:33.117Z,70.20
2018-10-16T04:18:05.736Z,70.20
2018-10-16T04:18:38.380Z,70.20
2018-10-16T04:19:10.970Z,70.10
2018-10-16T04:19:43.563Z,70.20
2018-10-16T04:20:16.211Z,70.20
2018-10-16T04:20:48.806Z,70.40
2018-10-16T04:21:21.378Z,70.30
2018-10-16T04:21:53.936Z,70.40
2018-10-16T04:22:26.598Z,70.40
2018-10-16T04:22:59.204Z,70.60
2018-10-16T04:23:31.796Z,70.60
2018-10-16T04:24:04.465Z,71.00
2018-10-16T04:24:37.077Z,71.00
2018-10-16T04:25:09.715Z,71.00
2018-10-16T04:25:42.318Z,71.00
2018-10-16T04:26:14.920Z,71.10
2018-10-16T04:26:47.554Z,71.00
2018-10-16T04:27:20.119Z,71.00
2018-10-16T04:27:52.670Z,71.10
2018-10-16T04:28:26.057Z,70.90
2018-10-16T04:28:58.704Z,70.60
2018-10-16T04:29:31.243Z,71.20
2018-10-16T04:30:04.114Z,70.70
2018-10-16T04:30:36.706Z,70.40
2018-10-16T04:31:10.392Z,70.10
2018-10-16T04:31:42.963Z,69.90
2018-10-16T04:32:15.538Z,69.60
2018-10-16T04:32:48.136Z,69.30
2018-10-16T04:33:20.686Z,69.30
2018-10-16T04:33:53.247Z,69.50
2018-10-16T04:34:25.812Z,69.40
2018-10-16T04:34:58.383Z,69.50
2018-10-16T04:35:30.959Z,69.60
2018-10-16T04:36:03.603Z,69.60
2018-10-16T04:36:36.198Z,69.70
2018-10-16T04:37:08.787Z,69.90
2018-10-16T04:37:41.656Z,69.90
2018-10-16T04:38:14.256Z,70.00
2018-10-16T04:38:46.807Z,70.00
2018-10-16T04:39:19.400Z,70.10
2018-10-16T04:39:51.951Z,70.10
2018-10-16T04:41:03.982Z,70.30
2018-10-16T04:41:36.594Z,71.10
2018-10-16T04:42:09.179Z,70.60
2018-10-16T04:42:42.186Z,70.50
2018-10-16T04:43:14.768Z,70.40
2018-10-16T04:43:47.390Z,70.40
2018-10-16T04:44:19.955Z,70.30
2018-10-16T04:44:52.519Z,70.20
2018-10-16T04:45:25.105Z,70.20
2018-10-16T04:45:57.666Z,70.00
2018-10-16T04:46:30.229Z,70.10
2018-10-16T04:47:02.819Z,70.10
2018-10-16T04:47:35.399Z,70.20
2018-10-16T04:48:07.996Z,70.30
2018-10-16T04:48:40.570Z,70.30
2018-10-16T04:49:13.162Z,70.20
2018-10-16T04:49:45.703Z,70.20
2018-10-16T04:50:18.255Z,70.30
2018-10-16T04:50:50.807Z,70.40
2018-10-16T04:51:23.354Z,70.40
2018-10-16T04:51:55.936Z,70.50
2018-10-16T04:52:28.527Z,70.50
2018-10-16T04:53:01.128Z,70.50
2018-10-16T04:53:33.734Z,70.40
2018-10-16T04:54:06.349Z,69.90
2018-10-16T04:54:38.948Z,70.30
2018-10-16T04:55:11.649Z,70.40
2018-10-16T04:55:44.150Z,70.30
2018-10-16T04:56:16.733Z,69.70
2018-10-16T04:56:49.300Z,69.60
2018-10-16T04:57:21.907Z,69.80
2018-10-16T04:57:54.528Z,69.70
2018-10-16T04:58:27.120Z,69.80
2018-10-16T04:58:59.694Z,69.70
2018-10-16T04:59:32.250Z,69.80
2018-10-16T05:00:05.447Z,69.60
2018-10-16T05:00:38.003Z,69.30
2018-10-16T05:01:10.563Z,69.10
2018-10-16T05:01:43.149Z,68.80
2018-10-16T05:02:15.791Z,68.70
2018-10-16T05:02:48.444Z,68.80
2018-10-16T05:03:21.047Z,68.90
2018-10-16T05:03:53.615Z,68.90
2018-10-16T05:04:26.210Z,69.10
2018-10-16T05:04:58.794Z,69.60
2018-10-16T05:05:31.347Z,69.30
2018-10-16T05:06:03.986Z,69.40
2018-10-16T05:06:36.787Z,69.60
2018-10-16T05:07:09.404Z,69.70
2018-10-16T05:07:41.998Z,69.60
2018-10-16T05:08:14.614Z,69.80
2018-10-16T05:08:47.182Z,69.90
2018-10-16T05:09:19.762Z,69.90
2018-10-16T05:09:52.319Z,69.90
2018-10-16T05:10:24.924Z,69.80
2018-10-16T05:10:57.495Z,69.50
2018-10-16T05:11:30.111Z,69.50
2018-10-16T05:12:02.758Z,69.60
2018-10-16T05:12:35.372Z,69.70
2018-10-16T05:13:07.944Z,69.80
2018-10-16T05:13:40.544Z,69.80
2018-10-16T05:14:13.135Z,70.00
2018-10-16T05:14:45.683Z,70.00
2018-10-16T05:15:29.226Z,70.60
2018-10-16T05:16:01.780Z,70.10
2018-10-16T05:16:34.404Z,70.10
2018-10-16T05:17:06.981Z,70.00
2018-10-16T05:17:39.568Z,70.10
2018-10-16T05:18:12.121Z,70.20
2018-10-16T05:18:44.679Z,70.30
2018-10-16T05:19:17.448Z,70.50
2018-10-16T05:19:49.851Z,70.50
2018-10-16T05:20:22.432Z,70.50
2018-10-16T05:20:54.995Z,70.60
2018-10-16T05:21:27.547Z,70.50
2018-10-16T05:22:00.091Z,70.30
2018-10-16T05:22:32.679Z,70.00
2018-10-16T05:23:05.291Z,70.10
2018-10-16T05:23:37.863Z,70.10
2018-10-16T05:24:10.814Z,70.00
2018-10-16T05:24:43.426Z,70.00
2018-10-16T05:25:15.987Z,70.10
2018-10-16T05:25:48.563Z,70.10
2018-10-16T05:26:21.127Z,70.30
2018-10-16T05:26:53.722Z,70.20
2018-10-16T05:27:26.295Z,70.30
2018-10-16T05:27:58.879Z,70.30
2018-10-16T05:28:31.446Z,70.40
2018-10-16T05:29:04.451Z,70.50
2018-10-16T05:29:37.011Z,70.30
2018-10-16T05:30:09.838Z,70.20
2018-10-16T05:30:42.391Z,70.30
2018-10-16T05:31:15.014Z,70.20
2018-10-16T05:31:47.514Z,70.10
2018-10-16T05:32:20.063Z,70.20
2018-10-16T05:32:52.642Z,70.30
2018-10-16T05:33:25.244Z,70.10
2018-10-16T05:33:57.832Z,70.20
2018-10-16T05:34:30.395Z,70.30
2018-10-16T05:35:03.010Z,70.30
2018-10-16T05:35:35.607Z,70.40
2018-10-16T05:36:08.192Z,70.40
2018-10-16T05:36:40.797Z,70.40
2018-10-16T05:37:13.345Z,70.50
2018-10-16T05:37:45.898Z,70.70
2018-10-16T05:38:18.479Z,70.60
2018-10-16T05:38:51.032Z,70.70
2018-10-16T05:39:23.719Z,70.90
2018-10-16T05:39:56.194Z,70.90
2018-10-16T05:40:28.748Z,70.90
2018-10-16T05:41:01.369Z,70.70
2018-10-16T05:41:33.951Z,70.70
2018-10-16T05:42:06.522Z,70.50
2018-10-16T05:42:39.467Z,70.50
2018-10-16T05:43:12.022Z,70.40
2018-10-16T05:43:44.607Z,70.30
2018-10-16T05:44:17.164Z,70.30
2018-10-16T05:44:49.756Z,70.50
2018-10-16T05:45:22.658Z,70.50
2018-10-16T05:45:55.228Z,70.60
2018-10-16T05:46:27.846Z,70.70
2018-10-16T05:47:00.399Z,70.70
2018-10-16T05:47:32.997Z,70.70
2018-10-16T05:48:05.623Z,70.60
2018-10-16T05:48:38.175Z,70.60
2018-10-16T05:49:10.735Z,70.60
2018-10-16T05:49:43.286Z,70.60
2018-10-16T05:50:15.892Z,70.50
2018-10-16T05:50:48.455Z,70.60
2018-10-16T05:51:21.050Z,70.60
2018-10-16T05:51:53.681Z,70.70
2018-10-16T05:52:26.255Z,71.40
2018-10-16T05:52:58.848Z,70.90
2018-10-16T05:53:31.426Z,70.80
2018-10-16T05:54:04.092Z,71.00
2018-10-16T05:54:36.671Z,71.20
2018-10-16T05:55:09.583Z,71.10
2018-10-16T05:55:42.176Z,71.20
2018-10-16T05:56:14.733Z,71.10
2018-10-16T05:56:47.274Z,71.40
2018-10-16T05:57:19.896Z,71.20
2018-10-16T05:57:52.446Z,71.20
2018-10-16T05:58:25.031Z,71.20
2018-10-16T05:58:57.591Z,71.40
2018-10-16T05:59:30.140Z,71.30
2018-10-16T06:00:15.371Z,71.10
2018-10-16T06:00:47.950Z,71.20
2018-10-16T06:01:20.543Z,71.20
2018-10-16T06:01:53.091Z,71.10
2018-10-16T06:02:25.674Z,70.90
2018-10-16T06:02:58.247Z,70.90
2018-10-16T06:03:30.817Z,71.00
2018-10-16T06:04:03.462Z,71.00
2018-10-16T06:04:36.048Z,71.00
2018-10-16T06:05:08.927Z,71.10
2018-10-16T06:05:41.580Z,71.10
2018-10-16T06:06:14.124Z,71.00
2018-10-16T06:06:46.712Z,70.90
2018-10-16T06:07:19.283Z,70.80
2018-10-16T06:07:51.897Z,70.90
2018-10-16T06:08:24.462Z,71.00
2018-10-16T06:08:57.025Z,70.90
2018-10-16T06:09:29.574Z,70.90
2018-10-16T06:10:02.139Z,71.00
2018-10-16T06:10:35.131Z,71.20
2018-10-16T06:11:07.685Z,71.30
2018-10-16T06:11:40.259Z,71.30
2018-10-16T06:12:12.900Z,71.40
2018-10-16T06:12:45.433Z,71.30
2018-10-16T06:13:18.049Z,71.90
2018-10-16T06:13:50.595Z,71.40
2018-10-16T06:14:23.159Z,71.70
2018-10-16T06:14:55.746Z,71.60
2018-10-16T06:15:28.314Z,71.40
2018-10-16T06:16:00.919Z,71.30
2018-10-16T06:16:33.490Z,71.20
2018-10-16T06:17:06.076Z,71.30
2018-10-16T06:17:38.666Z,71.30
2018-10-16T06:18:11.246Z,71.30
2018-10-16T06:18:43.852Z,71.30
2018-10-16T06:19:16.446Z,71.40
2018-10-16T06:19:49.006Z,71.30
2018-10-16T06:20:21.582Z,71.10
2018-10-16T06:20:54.163Z,71.00
2018-10-16T06:21:26.768Z,70.90
2018-10-16T06:21:59.355Z,70.80
2018-10-16T06:22:31.947Z,70.90
2018-10-16T06:23:04.614Z,70.90
2018-10-16T06:23:37.154Z,71.10
2018-10-16T06:24:09.750Z,71.00
2018-10-16T06:24:42.311Z,70.90
2018-10-16T06:25:14.910Z,70.70
2018-10-16T06:25:47.516Z,70.70
2018-10-16T06:26:20.142Z,70.90
2018-10-16T06:26:52.962Z,70.90
2018-10-16T06:27:25.945Z,70.70
2018-10-16T06:27:59.335Z,70.80
2018-10-16T06:28:31.928Z,71.10
2018-10-16T06:29:04.734Z,71.10
2018-10-16T06:29:37.331Z,71.30
2018-10-16T06:30:10.351Z,71.30
2018-10-16T06:30:42.879Z,70.90
2018-10-16T06:31:15.497Z,70.80
2018-10-16T06:31:48.123Z,71.00
2018-10-16T06:32:20.744Z,70.90
2018-10-16T06:32:53.338Z,71.00
2018-10-16T06:33:28.341Z,71.10
2018-10-16T06:34:00.984Z,70.60
2018-10-16T06:34:33.554Z,70.50
2018-10-16T06:35:07.059Z,70.70
2018-10-16T06:35:39.631Z,70.90
2018-10-16T06:36:12.224Z,71.00
2018-10-16T06:36:44.810Z,70.90
2018-10-16T06:37:17.430Z,70.90
2018-10-16T06:37:49.991Z,71.00
2018-10-16T06:38:22.583Z,71.10
2018-10-16T06:38:55.163Z,71.10
2018-10-16T06:39:27.764Z,71.30
2018-10-16T06:40:00.334Z,71.10
2018-10-16T06:40:33.038Z,70.50
2018-10-16T06:41:05.759Z,70.50
2018-10-16T06:41:38.194Z,70.40
2018-10-16T06:42:10.754Z,70.50
2018-10-16T06:42:43.307Z,70.70
2018-10-16T06:43:16.126Z,70.80
2018-10-16T06:43:48.794Z,70.50
2018-10-16T06:44:21.332Z,70.50
2018-10-16T06:44:53.950Z,70.60
2018-10-16T06:45:26.518Z,71.10
2018-10-16T06:45:59.119Z,71.60
2018-10-16T06:46:31.708Z,72.00
2018-10-16T06:47:04.714Z,72.10
2018-10-16T06:47:37.397Z,72.20
2018-10-16T06:48:10.113Z,72.30
2018-10-16T06:48:42.908Z,72.40
2018-10-16T06:49:15.071Z,72.70
2018-10-16T06:49:47.854Z,72.90
2018-10-16T06:50:20.448Z,72.80
2018-10-16T06:50:52.999Z,72.60
2018-10-16T06:51:25.590Z,72.40
2018-10-16T06:51:58.335Z,72.60
2018-10-16T06:52:30.948Z,72.90
2018-10-16T06:53:03.708Z,73.10
2018-10-16T06:53:36.273Z,72.90
2018-10-16T06:54:08.866Z,72.90
2018-10-16T06:54:41.522Z,72.80
2018-10-16T06:55:14.065Z,72.80
2018-10-16T06:55:46.645Z,72.70
2018-10-16T06:56:19.219Z,72.80
2018-10-16T06:56:51.794Z,72.70
2018-10-16T06:57:24.354Z,72.80
2018-10-16T06:57:56.963Z,72.80
2018-10-16T06:58:29.514Z,72.90
2018-10-16T06:59:02.067Z,72.70
2018-10-16T06:59:34.667Z,72.40
2018-10-16T07:00:07.529Z,72.20
2018-10-16T07:00:40.052Z,72.60
2018-10-16T07:01:12.603Z,72.30
2018-10-16T07:01:45.158Z,73.00